sensor_id;sensor_type;location;lat;lon;timestamp;temperature;humidity
610;DHT22;292;48.800;9.216;2023-05-10T00:01:12;17.40;86.20
610;DHT22;292;48.800;9.216;2023-05-10T00:03:39;17.40;86.10
610;DHT22;292;48.800;9.216;2023-05-10T00:06:10;17.30;85.70
610;DHT22;292;48.800;9.216;2023-05-10T00:08:39;17.30;85.70
610;DHT22;292;48.800;9.216;2023-05-10T00:11:08;17.20;85.50
610;DHT22;292;48.800;9.216;2023-05-10T00:13:35;17.20;85.20
610;DHT22;292;48.800;9.216;2023-05-10T00:16:03;17.10;85.10
610;DHT22;292;48.800;9.216;2023-05-10T00:18:32;17.00;85.20
610;DHT22;292;48.800;9.216;2023-05-10T00:21:01;17.00;85.20
610;DHT22;292;48.800;9.216;2023-05-10T00:23:33;16.90;85.10
610;DHT22;292;48.800;9.216;2023-05-10T00:26:01;16.80;85.10
610;DHT22;292;48.800;9.216;2023-05-10T00:28:28;16.80;85.10
610;DHT22;292;48.800;9.216;2023-05-10T00:30:57;16.70;84.80
610;DHT22;292;48.800;9.216;2023-05-10T00:33:25;16.60;84.50
610;DHT22;292;48.800;9.216;2023-05-10T00:35:52;16.60;84.10
610;DHT22;292;48.800;9.216;2023-05-10T00:38:20;16.50;83.80
610;DHT22;292;48.800;9.216;2023-05-10T00:40:55;16.50;83.60
610;DHT22;292;48.800;9.216;2023-05-10T00:43:25;16.40;83.10
610;DHT22;292;48.800;9.216;2023-05-10T00:45:54;16.30;82.60
610;DHT22;292;48.800;9.216;2023-05-10T00:48:24;16.30;82.60
610;DHT22;292;48.800;9.216;2023-05-10T00:50:53;16.20;82.50
610;DHT22;292;48.800;9.216;2023-05-10T00:53:22;16.20;82.50
610;DHT22;292;48.800;9.216;2023-05-10T00:55:54;16.10;82.80
610;DHT22;292;48.800;9.216;2023-05-10T00:58:23;16.10;83.10
610;DHT22;292;48.800;9.216;2023-05-10T01:00:56;16.10;83.10
610;DHT22;292;48.800;9.216;2023-05-10T01:03:24;16.10;83.10
610;DHT22;292;48.800;9.216;2023-05-10T01:05:52;16.00;82.90
610;DHT22;292;48.800;9.216;2023-05-10T01:08:20;16.00;83.20
610;DHT22;292;48.800;9.216;2023-05-10T01:10:48;16.00;83.20
610;DHT22;292;48.800;9.216;2023-05-10T01:13:31;15.90;83.20
610;DHT22;292;48.800;9.216;2023-05-10T01:16:01;15.90;83.40
610;DHT22;292;48.800;9.216;2023-05-10T01:18:33;15.90;83.40
610;DHT22;292;48.800;9.216;2023-05-10T01:21:17;15.80;83.40
610;DHT22;292;48.800;9.216;2023-05-10T01:24:05;15.80;83.50
610;DHT22;292;48.800;9.216;2023-05-10T01:33:11;15.70;83.20
610;DHT22;292;48.800;9.216;2023-05-10T01:35:45;15.70;83.10
610;DHT22;292;48.800;9.216;2023-05-10T01:38:18;15.60;83.20
610;DHT22;292;48.800;9.216;2023-05-10T01:40:57;15.60;83.50
610;DHT22;292;48.800;9.216;2023-05-10T01:43:37;15.60;83.50
610;DHT22;292;48.800;9.216;2023-05-10T01:46:10;15.60;83.50
610;DHT22;292;48.800;9.216;2023-05-10T01:48:48;15.60;83.80
610;DHT22;292;48.800;9.216;2023-05-10T01:51:21;15.60;83.90
610;DHT22;292;48.800;9.216;2023-05-10T01:53:54;15.60;83.90
610;DHT22;292;48.800;9.216;2023-05-10T01:56:30;15.60;84.10
610;DHT22;292;48.800;9.216;2023-05-10T01:58:59;15.60;84.10
610;DHT22;292;48.800;9.216;2023-05-10T02:01:32;15.70;84.20
610;DHT22;292;48.800;9.216;2023-05-10T02:04:07;15.70;84.20
610;DHT22;292;48.800;9.216;2023-05-10T02:06:37;15.70;84.20
610;DHT22;292;48.800;9.216;2023-05-10T02:09:06;15.70;84.10
610;DHT22;292;48.800;9.216;2023-05-10T02:11:34;15.80;84.10
610;DHT22;292;48.800;9.216;2023-05-10T02:14:02;15.80;83.90
610;DHT22;292;48.800;9.216;2023-05-10T02:16:30;15.80;83.90
610;DHT22;292;48.800;9.216;2023-05-10T02:19:03;15.80;84.10
610;DHT22;292;48.800;9.216;2023-05-10T02:21:33;15.90;84.10
610;DHT22;292;48.800;9.216;2023-05-10T02:24:04;15.90;84.10
610;DHT22;292;48.800;9.216;2023-05-10T02:26:35;15.90;84.20
610;DHT22;292;48.800;9.216;2023-05-10T02:29:03;16.00;84.10
610;DHT22;292;48.800;9.216;2023-05-10T02:31:35;16.00;83.80
610;DHT22;292;48.800;9.216;2023-05-10T02:34:07;16.00;83.80
610;DHT22;292;48.800;9.216;2023-05-10T02:36:36;16.00;83.80
610;DHT22;292;48.800;9.216;2023-05-10T02:39:05;16.10;83.60
610;DHT22;292;48.800;9.216;2023-05-10T02:41:36;16.10;83.40
610;DHT22;292;48.800;9.216;2023-05-10T02:44:06;16.10;83.40
610;DHT22;292;48.800;9.216;2023-05-10T02:46:35;16.10;83.50
610;DHT22;292;48.800;9.216;2023-05-10T02:49:07;16.10;83.40
610;DHT22;292;48.800;9.216;2023-05-10T02:51:37;16.10;83.20
610;DHT22;292;48.800;9.216;2023-05-10T02:54:12;16.10;83.20
610;DHT22;292;48.800;9.216;2023-05-10T02:56:42;16.00;83.50
610;DHT22;292;48.800;9.216;2023-05-10T02:59:10;16.10;83.60
610;DHT22;292;48.800;9.216;2023-05-10T03:01:39;16.10;83.80
610;DHT22;292;48.800;9.216;2023-05-10T03:04:12;16.10;83.90
610;DHT22;292;48.800;9.216;2023-05-10T03:06:42;16.10;83.90
610;DHT22;292;48.800;9.216;2023-05-10T03:09:11;16.10;83.90
610;DHT22;292;48.800;9.216;2023-05-10T03:11:55;16.10;83.90
610;DHT22;292;48.800;9.216;2023-05-10T03:14:32;16.10;83.80
610;DHT22;292;48.800;9.216;2023-05-10T03:17:10;16.10;83.60
610;DHT22;292;48.800;9.216;2023-05-10T03:19:48;16.10;83.40
610;DHT22;292;48.800;9.216;2023-05-10T03:22:23;16.10;83.40
610;DHT22;292;48.800;9.216;2023-05-10T03:24:53;16.10;83.40
610;DHT22;292;48.800;9.216;2023-05-10T03:27:25;16.10;83.50
610;DHT22;292;48.800;9.216;2023-05-10T03:29:54;16.10;83.50
610;DHT22;292;48.800;9.216;2023-05-10T03:32:22;16.10;83.60
610;DHT22;292;48.800;9.216;2023-05-10T03:34:51;16.10;83.60
610;DHT22;292;48.800;9.216;2023-05-10T03:37:19;16.10;83.60
610;DHT22;292;48.800;9.216;2023-05-10T03:39:47;16.10;83.40
610;DHT22;292;48.800;9.216;2023-05-10T03:42:14;16.10;83.40
610;DHT22;292;48.800;9.216;2023-05-10T03:44:44;16.10;83.10
610;DHT22;292;48.800;9.216;2023-05-10T03:47:12;16.10;83.10
610;DHT22;292;48.800;9.216;2023-05-10T03:49:41;16.10;83.20
610;DHT22;292;48.800;9.216;2023-05-10T03:52:18;16.10;83.10
610;DHT22;292;48.800;9.216;2023-05-10T03:54:47;16.10;83.20
610;DHT22;292;48.800;9.216;2023-05-10T03:57:14;16.10;83.10
610;DHT22;292;48.800;9.216;2023-05-10T03:59:42;16.20;83.10
610;DHT22;292;48.800;9.216;2023-05-10T04:02:09;16.10;82.80
610;DHT22;292;48.800;9.216;2023-05-10T04:04:39;16.20;82.50
610;DHT22;292;48.800;9.216;2023-05-10T04:07:10;16.10;82.60
610;DHT22;292;48.800;9.216;2023-05-10T04:09:38;16.20;82.60
610;DHT22;292;48.800;9.216;2023-05-10T04:12:06;16.20;82.50
610;DHT22;292;48.800;9.216;2023-05-10T04:14:33;16.20;82.40
610;DHT22;292;48.800;9.216;2023-05-10T04:17:00;16.10;82.20
610;DHT22;292;48.800;9.216;2023-05-10T04:19:31;16.10;82.20
610;DHT22;292;48.800;9.216;2023-05-10T04:22:02;16.10;82.10
610;DHT22;292;48.800;9.216;2023-05-10T04:24:32;16.10;82.00
610;DHT22;292;48.800;9.216;2023-05-10T04:27:00;16.10;82.10
610;DHT22;292;48.800;9.216;2023-05-10T04:29:30;16.20;82.00
610;DHT22;292;48.800;9.216;2023-05-10T04:31:57;16.10;82.00
610;DHT22;292;48.800;9.216;2023-05-10T04:34:24;16.10;82.10
610;DHT22;292;48.800;9.216;2023-05-10T04:36:51;16.10;82.20
610;DHT22;292;48.800;9.216;2023-05-10T04:39:22;16.10;82.10
610;DHT22;292;48.800;9.216;2023-05-10T04:41:51;16.10;82.10
610;DHT22;292;48.800;9.216;2023-05-10T04:44:18;16.10;82.20
610;DHT22;292;48.800;9.216;2023-05-10T04:46:48;16.10;82.00
610;DHT22;292;48.800;9.216;2023-05-10T04:49:17;16.10;82.10
610;DHT22;292;48.800;9.216;2023-05-10T04:51:45;16.10;82.00
610;DHT22;292;48.800;9.216;2023-05-10T04:54:13;16.10;82.10
610;DHT22;292;48.800;9.216;2023-05-10T04:56:40;16.10;82.10
610;DHT22;292;48.800;9.216;2023-05-10T04:59:09;16.10;82.10
610;DHT22;292;48.800;9.216;2023-05-10T05:01:38;16.10;82.10
610;DHT22;292;48.800;9.216;2023-05-10T05:04:05;16.10;82.20
610;DHT22;292;48.800;9.216;2023-05-10T05:06:32;16.10;82.40
610;DHT22;292;48.800;9.216;2023-05-10T05:09:04;16.20;82.50
610;DHT22;292;48.800;9.216;2023-05-10T05:11:31;16.20;82.20
610;DHT22;292;48.800;9.216;2023-05-10T05:14:01;16.20;82.10
610;DHT22;292;48.800;9.216;2023-05-10T05:16:32;16.20;82.20
610;DHT22;292;48.800;9.216;2023-05-10T05:18:59;16.20;82.10
610;DHT22;292;48.800;9.216;2023-05-10T05:21:29;16.20;82.00
610;DHT22;292;48.800;9.216;2023-05-10T05:23:57;16.30;82.00
610;DHT22;292;48.800;9.216;2023-05-10T05:26:26;16.30;82.00
610;DHT22;292;48.800;9.216;2023-05-10T05:28:55;16.30;81.90
610;DHT22;292;48.800;9.216;2023-05-10T05:31:23;16.30;81.60
610;DHT22;292;48.800;9.216;2023-05-10T05:33:52;16.40;81.30
610;DHT22;292;48.800;9.216;2023-05-10T05:36:20;16.40;81.30
610;DHT22;292;48.800;9.216;2023-05-10T05:38:49;16.40;81.40
610;DHT22;292;48.800;9.216;2023-05-10T05:41:23;16.40;81.30
610;DHT22;292;48.800;9.216;2023-05-10T05:43:51;16.40;81.20
610;DHT22;292;48.800;9.216;2023-05-10T05:46:18;16.40;81.20
610;DHT22;292;48.800;9.216;2023-05-10T05:48:45;16.50;81.20
610;DHT22;292;48.800;9.216;2023-05-10T05:51:15;16.50;80.90
610;DHT22;292;48.800;9.216;2023-05-10T05:53:43;16.50;80.70
610;DHT22;292;48.800;9.216;2023-05-10T05:56:11;16.50;80.70
610;DHT22;292;48.800;9.216;2023-05-10T05:58:40;16.50;80.60
610;DHT22;292;48.800;9.216;2023-05-10T06:01:15;16.60;80.40
610;DHT22;292;48.800;9.216;2023-05-10T06:03:45;16.60;80.40
610;DHT22;292;48.800;9.216;2023-05-10T06:06:14;16.60;80.10
610;DHT22;292;48.800;9.216;2023-05-10T06:08:44;16.60;79.90
610;DHT22;292;48.800;9.216;2023-05-10T06:11:11;16.60;79.30
610;DHT22;292;48.800;9.216;2023-05-10T06:13:39;16.60;79.40
610;DHT22;292;48.800;9.216;2023-05-10T06:16:06;16.60;79.60
610;DHT22;292;48.800;9.216;2023-05-10T06:18:36;16.60;79.40
610;DHT22;292;48.800;9.216;2023-05-10T06:21:05;16.60;79.60
610;DHT22;292;48.800;9.216;2023-05-10T06:23:34;16.60;79.70
610;DHT22;292;48.800;9.216;2023-05-10T06:26:01;16.70;79.60
610;DHT22;292;48.800;9.216;2023-05-10T06:28:29;16.70;79.40
610;DHT22;292;48.800;9.216;2023-05-10T06:30:59;16.70;79.30
610;DHT22;292;48.800;9.216;2023-05-10T06:33:27;16.70;79.10
610;DHT22;292;48.800;9.216;2023-05-10T06:35:54;16.70;79.10
610;DHT22;292;48.800;9.216;2023-05-10T06:38:22;16.70;79.30
610;DHT22;292;48.800;9.216;2023-05-10T06:40:50;16.80;79.00
610;DHT22;292;48.800;9.216;2023-05-10T06:43:18;16.80;79.00
610;DHT22;292;48.800;9.216;2023-05-10T06:45:45;16.80;79.00
610;DHT22;292;48.800;9.216;2023-05-10T06:48:12;16.80;78.80
610;DHT22;292;48.800;9.216;2023-05-10T06:50:40;16.80;78.60
610;DHT22;292;48.800;9.216;2023-05-10T06:53:07;16.80;78.30
610;DHT22;292;48.800;9.216;2023-05-10T06:55:34;16.80;78.30
610;DHT22;292;48.800;9.216;2023-05-10T06:58:04;16.80;78.30
610;DHT22;292;48.800;9.216;2023-05-10T07:00:33;16.80;78.30
610;DHT22;292;48.800;9.216;2023-05-10T07:03:00;16.80;78.30
610;DHT22;292;48.800;9.216;2023-05-10T07:05:28;16.80;78.10
610;DHT22;292;48.800;9.216;2023-05-10T07:07:55;16.80;78.30
610;DHT22;292;48.800;9.216;2023-05-10T07:10:23;16.80;78.40
610;DHT22;292;48.800;9.216;2023-05-10T07:12:51;16.80;78.40
610;DHT22;292;48.800;9.216;2023-05-10T07:15:19;16.80;78.40
610;DHT22;292;48.800;9.216;2023-05-10T07:17:47;16.70;78.10
610;DHT22;292;48.800;9.216;2023-05-10T07:20:16;16.70;78.00
610;DHT22;292;48.800;9.216;2023-05-10T07:22:44;16.80;77.80
610;DHT22;292;48.800;9.216;2023-05-10T07:25:12;16.80;77.80
610;DHT22;292;48.800;9.216;2023-05-10T07:27:39;16.80;77.70
610;DHT22;292;48.800;9.216;2023-05-10T07:30:08;16.80;77.70
610;DHT22;292;48.800;9.216;2023-05-10T07:32:36;16.80;77.50
610;DHT22;292;48.800;9.216;2023-05-10T07:35:05;16.80;77.30
610;DHT22;292;48.800;9.216;2023-05-10T07:37:32;16.90;77.30
610;DHT22;292;48.800;9.216;2023-05-10T07:40:01;16.90;77.30
610;DHT22;292;48.800;9.216;2023-05-10T07:42:29;17.00;77.30
610;DHT22;292;48.800;9.216;2023-05-10T07:44:56;17.00;77.30
610;DHT22;292;48.800;9.216;2023-05-10T07:47:24;17.00;77.10
610;DHT22;292;48.800;9.216;2023-05-10T07:49:53;17.10;76.70
610;DHT22;292;48.800;9.216;2023-05-10T07:52:21;17.10;76.50
610;DHT22;292;48.800;9.216;2023-05-10T07:54:49;17.10;76.50
610;DHT22;292;48.800;9.216;2023-05-10T07:57:17;17.20;76.20
610;DHT22;292;48.800;9.216;2023-05-10T07:59:46;17.20;76.00
610;DHT22;292;48.800;9.216;2023-05-10T08:02:14;17.20;76.00
610;DHT22;292;48.800;9.216;2023-05-10T08:04:41;17.20;75.50
610;DHT22;292;48.800;9.216;2023-05-10T08:07:10;17.20;74.70
610;DHT22;292;48.800;9.216;2023-05-10T08:09:38;17.20;74.40
610;DHT22;292;48.800;9.216;2023-05-10T08:12:09;17.30;74.10
610;DHT22;292;48.800;9.216;2023-05-10T08:14:43;17.30;73.80
610;DHT22;292;48.800;9.216;2023-05-10T08:17:35;17.30;73.50
610;DHT22;292;48.800;9.216;2023-05-10T08:23:15;17.30;73.20
610;DHT22;292;48.800;9.216;2023-05-10T08:30:05;17.30;72.20
610;DHT22;292;48.800;9.216;2023-05-10T08:32:33;17.30;71.80
610;DHT22;292;48.800;9.216;2023-05-10T08:35:01;17.30;71.60
610;DHT22;292;48.800;9.216;2023-05-10T08:37:30;17.30;71.20
610;DHT22;292;48.800;9.216;2023-05-10T08:39:59;17.30;71.10
610;DHT22;292;48.800;9.216;2023-05-10T08:42:30;17.30;70.90
610;DHT22;292;48.800;9.216;2023-05-10T08:45:01;17.30;70.90
610;DHT22;292;48.800;9.216;2023-05-10T08:47:30;17.40;70.20
610;DHT22;292;48.800;9.216;2023-05-10T08:49:59;17.40;69.80
610;DHT22;292;48.800;9.216;2023-05-10T08:52:28;17.40;69.60
610;DHT22;292;48.800;9.216;2023-05-10T08:54:57;17.40;69.90
610;DHT22;292;48.800;9.216;2023-05-10T08:57:26;17.40;69.60
610;DHT22;292;48.800;9.216;2023-05-10T08:59:56;17.50;69.30
610;DHT22;292;48.800;9.216;2023-05-10T09:05:58;17.50;69.30
610;DHT22;292;48.800;9.216;2023-05-10T09:08:34;17.60;68.30
610;DHT22;292;48.800;9.216;2023-05-10T09:11:04;17.60;68.00
610;DHT22;292;48.800;9.216;2023-05-10T09:13:34;17.60;68.00
610;DHT22;292;48.800;9.216;2023-05-10T09:16:04;17.70;67.90
610;DHT22;292;48.800;9.216;2023-05-10T09:18:45;17.70;67.00
610;DHT22;292;48.800;9.216;2023-05-10T09:21:29;17.70;66.70
610;DHT22;292;48.800;9.216;2023-05-10T09:23:57;17.70;67.00
610;DHT22;292;48.800;9.216;2023-05-10T09:26:35;17.70;67.30
610;DHT22;292;48.800;9.216;2023-05-10T09:29:03;17.80;67.20
610;DHT22;292;48.800;9.216;2023-05-10T09:31:47;17.80;66.70
610;DHT22;292;48.800;9.216;2023-05-10T09:34:18;17.80;66.90
610;DHT22;292;48.800;9.216;2023-05-10T09:36:55;17.80;66.90
610;DHT22;292;48.800;9.216;2023-05-10T09:39:30;17.80;66.00
610;DHT22;292;48.800;9.216;2023-05-10T09:41:59;17.80;65.00
610;DHT22;292;48.800;9.216;2023-05-10T09:44:28;17.80;64.60
610;DHT22;292;48.800;9.216;2023-05-10T09:46:57;17.80;64.30
610;DHT22;292;48.800;9.216;2023-05-10T09:49:26;17.80;64.10
610;DHT22;292;48.800;9.216;2023-05-10T09:52:05;17.80;64.40
610;DHT22;292;48.800;9.216;2023-05-10T09:54:34;17.80;63.70
610;DHT22;292;48.800;9.216;2023-05-10T09:57:02;17.80;63.80
610;DHT22;292;48.800;9.216;2023-05-10T09:59:32;17.80;63.70
610;DHT22;292;48.800;9.216;2023-05-10T10:02:01;17.80;63.60
610;DHT22;292;48.800;9.216;2023-05-10T10:04:29;17.80;63.80
610;DHT22;292;48.800;9.216;2023-05-10T10:07:04;17.80;63.80
610;DHT22;292;48.800;9.216;2023-05-10T10:09:33;17.80;63.00
610;DHT22;292;48.800;9.216;2023-05-10T10:12:06;17.80;63.00
610;DHT22;292;48.800;9.216;2023-05-10T10:14:37;17.80;63.10
610;DHT22;292;48.800;9.216;2023-05-10T10:17:06;17.70;63.10
610;DHT22;292;48.800;9.216;2023-05-10T10:19:35;17.70;63.40
610;DHT22;292;48.800;9.216;2023-05-10T10:22:07;17.70;63.70
610;DHT22;292;48.800;9.216;2023-05-10T10:24:38;17.80;63.60
610;DHT22;292;48.800;9.216;2023-05-10T10:27:18;17.80;63.60
610;DHT22;292;48.800;9.216;2023-05-10T10:30:03;17.80;63.30
610;DHT22;292;48.800;9.216;2023-05-10T10:32:47;17.80;63.60
610;DHT22;292;48.800;9.216;2023-05-10T10:35:29;17.80;64.00
610;DHT22;292;48.800;9.216;2023-05-10T10:38:04;17.80;64.10
610;DHT22;292;48.800;9.216;2023-05-10T10:40:37;17.80;64.10
610;DHT22;292;48.800;9.216;2023-05-10T10:43:22;17.90;64.30
610;DHT22;292;48.800;9.216;2023-05-10T10:46:10;17.90;64.40
610;DHT22;292;48.800;9.216;2023-05-10T10:48:38;18.00;64.60
610;DHT22;292;48.800;9.216;2023-05-10T10:51:06;18.00;64.70
610;DHT22;292;48.800;9.216;2023-05-10T10:53:37;18.10;64.90
610;DHT22;292;48.800;9.216;2023-05-10T10:56:06;18.00;64.10
610;DHT22;292;48.800;9.216;2023-05-10T10:58:35;18.00;63.60
610;DHT22;292;48.800;9.216;2023-05-10T11:01:15;18.00;63.80
610;DHT22;292;48.800;9.216;2023-05-10T11:04:19;18.00;63.30
610;DHT22;292;48.800;9.216;2023-05-10T11:07:18;17.90;63.30
610;DHT22;292;48.800;9.216;2023-05-10T11:10:03;17.80;63.10
610;DHT22;292;48.800;9.216;2023-05-10T11:13:00;17.80;60.20
610;DHT22;292;48.800;9.216;2023-05-10T11:15:34;17.70;58.60
610;DHT22;292;48.800;9.216;2023-05-10T11:18:17;17.60;58.20
610;DHT22;292;48.800;9.216;2023-05-10T11:20:51;17.60;58.40
610;DHT22;292;48.800;9.216;2023-05-10T11:23:32;17.50;58.60
610;DHT22;292;48.800;9.216;2023-05-10T11:26:03;17.50;59.00
610;DHT22;292;48.800;9.216;2023-05-10T11:28:42;17.50;59.00
610;DHT22;292;48.800;9.216;2023-05-10T11:31:10;17.40;59.30
610;DHT22;292;48.800;9.216;2023-05-10T11:33:48;17.40;59.00
610;DHT22;292;48.800;9.216;2023-05-10T11:36:17;17.30;59.20
610;DHT22;292;48.800;9.216;2023-05-10T11:38:44;17.30;59.70
610;DHT22;292;48.800;9.216;2023-05-10T11:41:15;17.30;60.00
610;DHT22;292;48.800;9.216;2023-05-10T11:43:46;17.30;60.40
610;DHT22;292;48.800;9.216;2023-05-10T11:46:20;17.30;60.50
610;DHT22;292;48.800;9.216;2023-05-10T11:48:49;17.30;60.20
610;DHT22;292;48.800;9.216;2023-05-10T11:51:23;17.40;60.40
610;DHT22;292;48.800;9.216;2023-05-10T11:53:53;17.50;60.20
610;DHT22;292;48.800;9.216;2023-05-10T11:56:24;17.50;60.40
610;DHT22;292;48.800;9.216;2023-05-10T11:59:03;17.60;59.60
610;DHT22;292;48.800;9.216;2023-05-10T12:01:53;17.60;59.40
610;DHT22;292;48.800;9.216;2023-05-10T12:04:21;17.60;59.80
610;DHT22;292;48.800;9.216;2023-05-10T12:06:49;17.60;60.10
610;DHT22;292;48.800;9.216;2023-05-10T12:09:17;17.60;59.40
610;DHT22;292;48.800;9.216;2023-05-10T12:11:46;17.60;59.70
610;DHT22;292;48.800;9.216;2023-05-10T12:14:13;17.60;59.80
610;DHT22;292;48.800;9.216;2023-05-10T12:16:43;17.60;59.80
610;DHT22;292;48.800;9.216;2023-05-10T12:19:11;17.60;59.70
610;DHT22;292;48.800;9.216;2023-05-10T12:21:38;17.60;59.30
610;DHT22;292;48.800;9.216;2023-05-10T12:24:08;17.50;59.60
610;DHT22;292;48.800;9.216;2023-05-10T12:29:55;17.50;60.10
610;DHT22;292;48.800;9.216;2023-05-10T12:32:37;17.60;60.00
610;DHT22;292;48.800;9.216;2023-05-10T12:35:06;17.60;60.10
610;DHT22;292;48.800;9.216;2023-05-10T12:37:33;17.60;60.20
610;DHT22;292;48.800;9.216;2023-05-10T12:40:09;17.60;60.20
610;DHT22;292;48.800;9.216;2023-05-10T12:42:44;17.60;60.50
610;DHT22;292;48.800;9.216;2023-05-10T12:45:13;17.70;60.50
610;DHT22;292;48.800;9.216;2023-05-10T12:47:40;17.80;58.80
610;DHT22;292;48.800;9.216;2023-05-10T12:50:08;17.80;58.10
610;DHT22;292;48.800;9.216;2023-05-10T12:52:40;17.80;58.00
610;DHT22;292;48.800;9.216;2023-05-10T12:55:08;17.80;56.90
610;DHT22;292;48.800;9.216;2023-05-10T12:57:40;17.80;56.20
610;DHT22;292;48.800;9.216;2023-05-10T13:00:09;17.80;56.50
610;DHT22;292;48.800;9.216;2023-05-10T13:02:43;17.90;56.50
610;DHT22;292;48.800;9.216;2023-05-10T13:05:13;17.90;56.20
610;DHT22;292;48.800;9.216;2023-05-10T13:07:42;17.90;56.10
610;DHT22;292;48.800;9.216;2023-05-10T13:10:10;17.80;56.10
610;DHT22;292;48.800;9.216;2023-05-10T13:12:37;17.80;56.40
610;DHT22;292;48.800;9.216;2023-05-10T13:15:10;17.80;56.60
610;DHT22;292;48.800;9.216;2023-05-10T13:17:41;17.80;56.10
610;DHT22;292;48.800;9.216;2023-05-10T13:20:10;17.70;56.10
610;DHT22;292;48.800;9.216;2023-05-10T13:22:37;17.70;56.20
610;DHT22;292;48.800;9.216;2023-05-10T13:25:07;17.70;56.50
610;DHT22;292;48.800;9.216;2023-05-10T13:46:16;17.80;57.30
610;DHT22;292;48.800;9.216;2023-05-10T13:48:46;17.90;56.60
610;DHT22;292;48.800;9.216;2023-05-10T13:51:13;17.90;56.40
610;DHT22;292;48.800;9.216;2023-05-10T13:53:41;17.90;56.20
610;DHT22;292;48.800;9.216;2023-05-10T13:56:08;17.90;56.10
610;DHT22;292;48.800;9.216;2023-05-10T13:58:37;18.00;56.10
610;DHT22;292;48.800;9.216;2023-05-10T14:01:07;18.00;56.10
610;DHT22;292;48.800;9.216;2023-05-10T14:03:51;18.00;56.20
610;DHT22;292;48.800;9.216;2023-05-10T14:06:45;18.00;56.40
610;DHT22;292;48.800;9.216;2023-05-10T14:09:12;18.00;56.40
610;DHT22;292;48.800;9.216;2023-05-10T14:11:40;18.00;56.20
610;DHT22;292;48.800;9.216;2023-05-10T14:14:10;18.00;55.70
610;DHT22;292;48.800;9.216;2023-05-10T14:19:36;18.10;54.20
610;DHT22;292;48.800;9.216;2023-05-10T14:22:06;18.10;53.30
610;DHT22;292;48.800;9.216;2023-05-10T14:24:36;18.10;52.90
610;DHT22;292;48.800;9.216;2023-05-10T14:27:07;18.10;52.60
610;DHT22;292;48.800;9.216;2023-05-10T14:29:35;18.20;52.40
610;DHT22;292;48.800;9.216;2023-05-10T14:32:02;18.20;52.10
610;DHT22;292;48.800;9.216;2023-05-10T14:34:30;18.30;52.20
610;DHT22;292;48.800;9.216;2023-05-10T14:37:01;18.30;52.00
610;DHT22;292;48.800;9.216;2023-05-10T14:39:29;18.30;51.20
610;DHT22;292;48.800;9.216;2023-05-10T14:41:56;18.30;51.20
610;DHT22;292;48.800;9.216;2023-05-10T14:44:26;18.30;51.00
610;DHT22;292;48.800;9.216;2023-05-10T14:46:58;18.30;51.30
610;DHT22;292;48.800;9.216;2023-05-10T14:49:25;18.30;51.40
610;DHT22;292;48.800;9.216;2023-05-10T14:51:54;18.30;51.40
610;DHT22;292;48.800;9.216;2023-05-10T14:54:22;18.30;51.20
610;DHT22;292;48.800;9.216;2023-05-10T14:56:50;18.30;51.70
610;DHT22;292;48.800;9.216;2023-05-10T14:59:17;18.30;52.00
610;DHT22;292;48.800;9.216;2023-05-10T15:01:51;18.40;52.10
610;DHT22;292;48.800;9.216;2023-05-10T15:04:21;18.40;51.70
610;DHT22;292;48.800;9.216;2023-05-10T15:20:29;18.40;51.00
610;DHT22;292;48.800;9.216;2023-05-10T15:23:03;18.40;51.30
610;DHT22;292;48.800;9.216;2023-05-10T15:25:32;18.40;51.60
610;DHT22;292;48.800;9.216;2023-05-10T15:28:04;18.40;51.80
610;DHT22;292;48.800;9.216;2023-05-10T15:30:38;18.40;52.10
610;DHT22;292;48.800;9.216;2023-05-10T15:33:09;18.40;52.40
610;DHT22;292;48.800;9.216;2023-05-10T15:35:54;18.40;52.50
610;DHT22;292;48.800;9.216;2023-05-10T15:38:22;18.40;52.90
610;DHT22;292;48.800;9.216;2023-05-10T15:40:58;18.40;53.00
610;DHT22;292;48.800;9.216;2023-05-10T15:43:29;18.40;53.20
610;DHT22;292;48.800;9.216;2023-05-10T15:45:57;18.50;53.20
610;DHT22;292;48.800;9.216;2023-05-10T15:48:24;18.50;52.80
610;DHT22;292;48.800;9.216;2023-05-10T15:50:55;18.50;52.80
610;DHT22;292;48.800;9.216;2023-05-10T15:53:27;18.50;52.80
610;DHT22;292;48.800;9.216;2023-05-10T15:55:55;18.50;52.80
610;DHT22;292;48.800;9.216;2023-05-10T15:58:29;18.50;52.90
610;DHT22;292;48.800;9.216;2023-05-10T16:00:57;18.60;53.00
610;DHT22;292;48.800;9.216;2023-05-10T16:03:25;18.60;53.30
610;DHT22;292;48.800;9.216;2023-05-10T16:05:54;18.70;53.40
610;DHT22;292;48.800;9.216;2023-05-10T16:08:21;18.70;53.20
610;DHT22;292;48.800;9.216;2023-05-10T16:10:50;18.70;53.20
610;DHT22;292;48.800;9.216;2023-05-10T16:13:18;18.80;52.80
610;DHT22;292;48.800;9.216;2023-05-10T16:15:47;18.70;52.50
610;DHT22;292;48.800;9.216;2023-05-10T16:18:15;18.70;52.60
610;DHT22;292;48.800;9.216;2023-05-10T16:20:42;18.70;52.80
610;DHT22;292;48.800;9.216;2023-05-10T16:23:11;18.70;52.60
610;DHT22;292;48.800;9.216;2023-05-10T16:25:40;18.70;51.20
610;DHT22;292;48.800;9.216;2023-05-10T16:28:07;18.70;50.20
610;DHT22;292;48.800;9.216;2023-05-10T16:30:35;18.60;50.20
610;DHT22;292;48.800;9.216;2023-05-10T16:33:03;18.60;50.40
610;DHT22;292;48.800;9.216;2023-05-10T16:35:31;18.60;49.80
610;DHT22;292;48.800;9.216;2023-05-10T16:37:58;18.50;50.10
610;DHT22;292;48.800;9.216;2023-05-10T16:40:38;18.50;50.20
610;DHT22;292;48.800;9.216;2023-05-10T16:43:05;18.50;50.10
610;DHT22;292;48.800;9.216;2023-05-10T16:45:32;18.50;50.40
610;DHT22;292;48.800;9.216;2023-05-10T16:48:12;18.50;50.90
610;DHT22;292;48.800;9.216;2023-05-10T16:50:42;18.50;51.20
610;DHT22;292;48.800;9.216;2023-05-10T16:53:22;18.50;51.20
610;DHT22;292;48.800;9.216;2023-05-10T16:56:32;18.50;51.20
610;DHT22;292;48.800;9.216;2023-05-10T16:59:30;18.50;51.40
610;DHT22;292;48.800;9.216;2023-05-10T17:02:08;18.50;51.70
610;DHT22;292;48.800;9.216;2023-05-10T17:04:36;18.50;52.00
610;DHT22;292;48.800;9.216;2023-05-10T17:07:03;18.60;52.10
610;DHT22;292;48.800;9.216;2023-05-10T17:09:31;18.60;52.20
610;DHT22;292;48.800;9.216;2023-05-10T17:12:07;18.60;52.10
610;DHT22;292;48.800;9.216;2023-05-10T17:14:36;18.60;51.80
610;DHT22;292;48.800;9.216;2023-05-10T17:17:04;18.50;51.60
610;DHT22;292;48.800;9.216;2023-05-10T17:19:33;18.50;51.40
610;DHT22;292;48.800;9.216;2023-05-10T17:22:03;18.50;51.30
610;DHT22;292;48.800;9.216;2023-05-10T17:24:30;18.50;51.30
610;DHT22;292;48.800;9.216;2023-05-10T17:26:58;18.40;51.30
610;DHT22;292;48.800;9.216;2023-05-10T17:29:30;18.40;51.20
610;DHT22;292;48.800;9.216;2023-05-10T17:31:59;18.40;51.00
610;DHT22;292;48.800;9.216;2023-05-10T17:34:28;18.30;51.20
610;DHT22;292;48.800;9.216;2023-05-10T17:37:00;18.30;51.30
610;DHT22;292;48.800;9.216;2023-05-10T17:39:29;18.30;51.60
610;DHT22;292;48.800;9.216;2023-05-10T17:41:58;18.30;51.80
610;DHT22;292;48.800;9.216;2023-05-10T17:44:25;18.30;52.20
610;DHT22;292;48.800;9.216;2023-05-10T17:46:55;18.30;52.60
610;DHT22;292;48.800;9.216;2023-05-10T17:49:23;18.30;52.90
610;DHT22;292;48.800;9.216;2023-05-10T17:51:51;18.20;53.30
610;DHT22;292;48.800;9.216;2023-05-10T17:54:18;18.20;53.40